createdAt,value
2023-04-15T00:00:41.073Z,5.49
2023-04-15T00:01:41.074Z,5.47
2023-04-15T00:02:41.140Z,5.43
2023-04-15T00:03:41.200Z,5.38
2023-04-15T00:04:41.079Z,5.33
2023-04-15T00:05:41.153Z,5.26
2023-04-15T00:06:41.055Z,5.2
2023-04-15T00:07:41.042Z,5.14
2023-04-15T00:08:41.139Z,5.08
2023-04-15T00:09:41.049Z,5.03
2023-04-15T00:10:41.048Z,4.97
2023-04-15T00:11:41.042Z,4.9
2023-04-15T00:12:41.048Z,4.85
2023-04-15T00:13:41.045Z,4.79
2023-04-15T00:14:41.049Z,4.73
2023-04-15T00:15:42.093Z,4.69
2023-04-15T00:16:45.557Z,4.68
2023-04-15T00:17:48.516Z,4.7
2023-04-15T00:19:41.057Z,4.69
2023-04-15T00:20:41.052Z,4.67
2023-04-15T00:21:41.057Z,4.66
2023-04-15T00:22:41.066Z,4.64
2023-04-15T00:23:41.050Z,4.67
2023-04-15T00:24:41.047Z,4.71
2023-04-15T00:25:41.054Z,4.74
2023-04-15T00:26:41.041Z,4.74
2023-04-15T00:27:41.054Z,4.75
2023-04-15T00:28:41.038Z,4.74
2023-04-15T00:29:41.057Z,4.73
2023-04-15T00:30:41.064Z,4.71
2023-04-15T00:31:41.048Z,4.69
2023-04-15T00:32:41.095Z,4.65
2023-04-15T00:33:41.042Z,4.62
2023-04-15T00:34:41.042Z,4.62
2023-04-15T00:35:41.041Z,4.65
2023-04-15T00:36:41.038Z,4.71
2023-04-15T00:37:43.646Z,4.78
2023-04-15T00:38:45.873Z,4.85
2023-04-15T00:39:47.763Z,4.94
2023-04-15T00:40:41.050Z,5
2023-04-15T00:41:41.042Z,5.07
2023-04-15T00:42:41.090Z,5.11
2023-04-15T00:43:41.035Z,5.16
2023-04-15T00:44:41.054Z,5.2
2023-04-15T00:45:41.068Z,5.25
2023-04-15T00:46:41.044Z,5.27
2023-04-15T00:47:41.065Z,5.3
2023-04-15T00:48:41.038Z,5.29
2023-04-15T00:49:41.060Z,5.26
2023-04-15T00:50:41.042Z,5.21
2023-04-15T00:51:41.054Z,5.15
2023-04-15T00:52:41.091Z,5.09
2023-04-15T00:53:41.041Z,5.05
2023-04-15T00:54:41.042Z,5
2023-04-15T00:55:41.044Z,4.93
2023-04-15T00:56:41.036Z,4.85
2023-04-15T00:57:41.107Z,4.78
2023-04-15T00:58:42.454Z,4.72
2023-04-15T00:59:45.519Z,4.62
2023-04-15T01:00:47.343Z,4.52
2023-04-15T01:01:41.067Z,4.41
2023-04-15T01:02:41.199Z,4.3
2023-04-15T01:03:41.118Z,4.19
2023-04-15T01:04:41.061Z,4.1
2023-04-15T01:05:41.057Z,4.03
2023-04-15T01:06:41.051Z,3.95
2023-04-15T01:07:41.051Z,3.89
2023-04-15T01:08:41.052Z,3.88
2023-04-15T01:09:41.055Z,3.86
2023-04-15T01:10:41.045Z,3.85
2023-04-15T01:11:41.051Z,3.83
2023-04-15T01:12:41.057Z,3.82
2023-04-15T01:13:41.052Z,3.8
2023-04-15T01:14:41.054Z,3.81
2023-04-15T01:15:41.083Z,3.87
2023-04-15T01:16:41.049Z,3.89
2023-04-15T01:17:41.179Z,3.9
2023-04-15T01:18:41.047Z,3.92
2023-04-15T01:19:42.565Z,3.9
2023-04-15T01:20:46.034Z,3.87
2023-04-15T01:21:47.402Z,3.83
2023-04-15T01:22:41.065Z,3.81
2023-04-15T01:23:41.048Z,3.77
2023-04-15T01:24:41.063Z,3.73
2023-04-15T01:25:41.052Z,3.7
2023-04-15T01:26:41.058Z,3.66
2023-04-15T01:27:41.065Z,3.62
2023-04-15T01:28:41.049Z,3.59
2023-04-15T01:29:41.043Z,3.57
2023-04-15T01:30:41.050Z,3.53
2023-04-15T01:31:41.082Z,3.52
2023-04-15T01:32:41.105Z,3.49
2023-04-15T01:33:41.047Z,3.47
2023-04-15T01:34:41.047Z,3.45
2023-04-15T01:35:41.042Z,3.42
2023-04-15T01:36:41.053Z,3.39
2023-04-15T01:37:41.053Z,3.35
2023-04-15T01:38:41.107Z,3.33
2023-04-15T01:39:41.057Z,3.29
2023-04-15T01:40:42.603Z,3.28
2023-04-15T01:41:46.065Z,3.25
2023-04-15T01:42:47.426Z,3.21
2023-04-15T01:43:41.060Z,3.22
2023-04-15T01:44:41.110Z,3.23
2023-04-15T01:45:41.053Z,3.23
2023-04-15T01:46:41.097Z,3.22
2023-04-15T01:47:41.088Z,3.21
2023-04-15T01:48:41.051Z,3.2
2023-04-15T01:49:41.045Z,3.18
2023-04-15T01:50:41.066Z,3.15
2023-04-15T01:51:41.049Z,3.14
2023-04-15T01:52:41.047Z,3.11
2023-04-15T01:53:41.046Z,3.09
2023-04-15T01:54:41.077Z,3.06
2023-04-15T01:55:41.055Z,3.05
2023-04-15T01:56:41.077Z,3.03
2023-04-15T01:57:41.138Z,3
2023-04-15T01:58:41.048Z,2.99
2023-04-15T01:59:41.041Z,2.97
2023-04-15T02:00:41.057Z,2.96
2023-04-15T02:01:42.725Z,2.95
2023-04-15T02:02:46.244Z,2.94
2023-04-15T02:03:47.771Z,2.93
2023-04-15T02:04:41.069Z,2.92
2023-04-15T02:05:41.140Z,2.92
2023-04-15T02:06:41.053Z,2.91
2023-04-15T02:07:41.057Z,2.91
2023-04-15T02:08:41.065Z,2.91
2023-04-15T02:09:41.059Z,2.9
2023-04-15T02:10:41.080Z,2.91
2023-04-15T02:11:41.055Z,2.91
2023-04-15T02:12:41.084Z,2.91
2023-04-15T02:13:41.051Z,2.9
2023-04-15T02:14:41.063Z,2.89
2023-04-15T02:15:41.060Z,2.87
2023-04-15T02:16:41.085Z,2.86
2023-04-15T02:17:41.141Z,2.84
2023-04-15T02:18:41.049Z,2.82
2023-04-15T02:19:41.067Z,2.8
2023-04-15T02:20:41.052Z,2.78
2023-04-15T02:21:41.054Z,2.74
2023-04-15T02:22:42.861Z,2.7
2023-04-15T02:23:45.889Z,2.67
2023-04-15T02:24:47.729Z,2.63
2023-04-15T02:25:41.080Z,2.57
2023-04-15T02:26:41.098Z,2.54
2023-04-15T02:27:41.062Z,2.51
2023-04-15T02:28:41.055Z,2.53
2023-04-15T02:29:41.139Z,2.56
2023-04-15T02:30:41.072Z,2.58
2023-04-15T02:31:41.072Z,2.58
2023-04-15T02:32:41.102Z,2.56
2023-04-15T02:33:41.060Z,2.55
2023-04-15T02:34:41.051Z,2.53
2023-04-15T02:35:41.057Z,2.49
2023-04-15T02:36:41.207Z,2.46
2023-04-15T02:37:41.060Z,2.42
2023-04-15T02:38:41.049Z,2.4
2023-04-15T02:39:41.051Z,2.37
2023-04-15T02:40:41.056Z,2.34
2023-04-15T02:41:41.054Z,2.31
2023-04-15T02:42:41.066Z,2.3
2023-04-15T02:43:42.914Z,2.28
2023-04-15T02:44:46.391Z,2.25
2023-04-15T02:45:47.793Z,2.23
2023-04-15T02:46:41.065Z,2.21
2023-04-15T02:47:41.075Z,2.21
2023-04-15T02:48:41.061Z,2.19
2023-04-15T02:49:41.049Z,2.18
2023-04-15T02:50:41.066Z,2.17
2023-04-15T02:51:41.059Z,2.14
2023-04-15T02:52:41.056Z,2.12
2023-04-15T02:53:41.059Z,2.1
2023-04-15T02:54:41.042Z,2.08
2023-04-15T02:55:41.058Z,2.04
2023-04-15T02:56:41.060Z,2.02
2023-04-15T02:57:41.152Z,2
2023-04-15T02:58:41.051Z,1.99
2023-04-15T02:59:41.047Z,1.97
2023-04-15T03:00:41.060Z,1.95
2023-04-15T03:01:41.069Z,1.94
2023-04-15T03:02:41.191Z,1.93
2023-04-15T03:03:41.113Z,1.94
2023-04-15T03:04:43.015Z,1.95
2023-04-15T03:05:42.817Z,1.95
2023-04-15T03:06:46.275Z,1.95
2023-04-15T03:08:41.080Z,1.94
2023-04-15T03:09:41.050Z,1.94
2023-04-15T03:10:41.049Z,1.92
2023-04-15T03:11:41.063Z,1.91
2023-04-15T03:12:41.047Z,1.88
2023-04-15T03:13:41.075Z,1.87
2023-04-15T03:14:41.063Z,1.84
2023-04-15T03:15:41.050Z,1.82
2023-04-15T03:16:41.042Z,1.78
2023-04-15T03:17:41.090Z,1.75
2023-04-15T03:18:41.064Z,1.73
2023-04-15T03:19:41.050Z,1.7
2023-04-15T03:20:41.068Z,1.7
2023-04-15T03:21:41.055Z,1.77
2023-04-15T03:22:41.046Z,1.77
2023-04-15T03:23:41.071Z,1.77
2023-04-15T03:24:41.047Z,1.78
2023-04-15T03:25:41.042Z,1.78
2023-04-15T03:26:43.370Z,1.79
2023-04-15T03:27:46.271Z,1.8
2023-04-15T03:29:41.052Z,1.88
2023-04-15T03:30:41.048Z,1.9
2023-04-15T03:31:41.132Z,1.91
2023-04-15T03:32:41.094Z,1.9
2023-04-15T03:33:41.050Z,1.91
2023-04-15T03:34:41.063Z,1.91
2023-04-15T03:35:41.042Z,1.91
2023-04-15T03:36:41.045Z,1.91
2023-04-15T03:37:41.047Z,1.91
2023-04-15T03:38:41.056Z,1.92
2023-04-15T03:39:41.071Z,1.92
2023-04-15T03:40:41.056Z,1.9
2023-04-15T03:41:41.050Z,1.87
2023-04-15T03:42:41.052Z,1.85
2023-04-15T03:43:41.056Z,1.82
2023-04-15T03:44:41.055Z,1.8
2023-04-15T03:45:41.055Z,1.76
2023-04-15T03:46:41.075Z,1.74
2023-04-15T03:47:43.504Z,1.72
2023-04-15T03:48:46.401Z,1.71
2023-04-15T03:50:41.077Z,1.7
2023-04-15T03:51:41.043Z,1.71
2023-04-15T03:52:41.045Z,1.7
2023-04-15T03:53:41.062Z,1.71
2023-04-15T03:54:41.049Z,1.71
2023-04-15T03:55:41.066Z,1.71
2023-04-15T03:56:41.062Z,1.72
2023-04-15T03:57:41.045Z,1.75
2023-04-15T03:58:41.051Z,1.76
2023-04-15T03:59:41.045Z,1.8
2023-04-15T04:00:41.074Z,1.83
2023-04-15T04:01:41.078Z,1.88
2023-04-15T04:02:41.218Z,1.91
2023-04-15T04:03:41.211Z,1.96
2023-04-15T04:04:41.097Z,1.99
2023-04-15T04:05:41.069Z,2.02
2023-04-15T04:06:41.046Z,2.04
2023-04-15T04:07:41.159Z,2.07
2023-04-15T04:08:43.504Z,2.09
2023-04-15T04:09:47.594Z,2.11
2023-04-15T04:11:41.047Z,2.13
2023-04-15T04:12:41.076Z,2.14
2023-04-15T04:13:41.049Z,2.13
2023-04-15T04:14:41.052Z,2.15
2023-04-15T04:15:41.102Z,2.15
2023-04-15T04:16:41.100Z,2.14
2023-04-15T04:17:41.083Z,2.14
2023-04-15T04:18:41.049Z,2.16
2023-04-15T04:19:41.054Z,2.17
2023-04-15T04:20:41.064Z,2.18
2023-04-15T04:21:41.057Z,2.19
2023-04-15T04:22:41.051Z,2.2
2023-04-15T04:23:41.048Z,2.21
2023-04-15T04:24:41.056Z,2.22
2023-04-15T04:25:41.065Z,2.24
2023-04-15T04:26:41.053Z,2.23
2023-04-15T04:27:41.045Z,2.24
2023-04-15T04:28:41.254Z,2.25
2023-04-15T04:29:43.511Z,2.26
2023-04-15T04:30:46.650Z,2.26
2023-04-15T04:32:41.061Z,2.23
2023-04-15T04:33:41.045Z,2.22
2023-04-15T04:34:41.046Z,2.23
2023-04-15T04:35:41.049Z,2.23
2023-04-15T04:36:41.068Z,2.24
2023-04-15T04:37:41.060Z,2.25
2023-04-15T04:38:41.054Z,2.28
2023-04-15T04:39:41.060Z,2.32
2023-04-15T04:40:41.049Z,2.35
2023-04-15T04:41:41.043Z,2.38
2023-04-15T04:42:41.062Z,2.4
2023-04-15T04:43:41.047Z,2.43
2023-04-15T04:44:41.048Z,2.44
2023-04-15T04:45:41.068Z,2.43
2023-04-15T04:46:41.047Z,2.45
2023-04-15T04:47:41.081Z,2.46
2023-04-15T04:48:41.037Z,2.47
2023-04-15T04:49:41.182Z,2.47
2023-04-15T04:50:44.326Z,2.48
2023-04-15T04:51:46.785Z,2.49
2023-04-15T04:53:41.047Z,2.51
2023-04-15T04:54:41.055Z,2.54
2023-04-15T04:55:41.043Z,2.55
2023-04-15T04:56:41.057Z,2.57
2023-04-15T04:57:41.125Z,2.58
2023-04-15T04:58:41.046Z,2.59
2023-04-15T04:59:41.047Z,2.62
2023-04-15T05:00:41.111Z,2.65
2023-04-15T05:01:41.086Z,2.68
2023-04-15T05:02:41.161Z,2.73
2023-04-15T05:03:41.098Z,2.76
2023-04-15T05:04:41.038Z,2.81
2023-04-15T05:05:41.043Z,2.84
2023-04-15T05:06:41.046Z,2.89
2023-04-15T05:07:41.089Z,2.95
2023-04-15T05:08:41.038Z,3
2023-04-15T05:09:41.046Z,3.03
2023-04-15T05:10:41.451Z,3.08
2023-04-15T05:11:44.411Z,3.11
2023-04-15T05:12:46.829Z,3.15
2023-04-15T05:14:41.065Z,3.18
2023-04-15T05:15:41.074Z,3.2
2023-04-15T05:16:41.045Z,3.22
2023-04-15T05:17:41.070Z,3.23
2023-04-15T05:18:41.189Z,3.24
2023-04-15T05:19:41.061Z,3.26
2023-04-15T05:20:41.042Z,3.28
2023-04-15T05:21:41.163Z,3.31
2023-04-15T05:22:41.067Z,3.33
2023-04-15T05:23:41.039Z,3.35
2023-04-15T05:24:41.065Z,3.38
2023-04-15T05:25:41.039Z,3.41
2023-04-15T05:26:42.416Z,3.44
2023-04-15T05:27:41.060Z,3.47
2023-04-15T05:28:41.055Z,3.5
2023-04-15T05:29:41.055Z,3.53
2023-04-15T05:30:41.046Z,3.56
2023-04-15T05:31:41.082Z,3.59
2023-04-15T05:32:44.539Z,3.63
2023-04-15T05:33:46.870Z,3.66
2023-04-15T05:35:41.055Z,3.71
2023-04-15T05:36:41.072Z,3.73
2023-04-15T05:37:41.041Z,3.75
2023-04-15T05:38:41.049Z,3.77
2023-04-15T05:39:41.055Z,3.79
2023-04-15T05:40:41.041Z,3.82
2023-04-15T05:41:41.049Z,3.83
2023-04-15T05:42:41.071Z,3.85
2023-04-15T05:43:41.052Z,3.88
2023-04-15T05:44:41.043Z,3.89
2023-04-15T05:45:41.042Z,3.92
2023-04-15T05:46:41.128Z,3.93
2023-04-15T05:47:41.067Z,3.94
2023-04-15T05:48:41.069Z,3.95
2023-04-15T05:49:41.076Z,3.96
2023-04-15T05:50:41.045Z,3.95
2023-04-15T05:51:41.052Z,3.96
2023-04-15T05:52:41.101Z,3.98
2023-04-15T05:53:43.846Z,3.98
2023-04-15T05:54:47.033Z,4.01
2023-04-15T05:56:41.051Z,4.04
2023-04-15T05:57:41.047Z,4.07
2023-04-15T05:58:41.041Z,4.09
2023-04-15T05:59:41.056Z,4.13
2023-04-15T06:00:41.057Z,4.15
2023-04-15T06:01:41.042Z,4.17
2023-04-15T06:02:41.142Z,4.19
2023-04-15T06:03:41.158Z,4.21
2023-04-15T06:04:41.055Z,4.21
2023-04-15T06:05:41.069Z,4.22
2023-04-15T06:06:41.059Z,4.21
2023-04-15T06:07:41.052Z,4.24
2023-04-15T06:08:41.039Z,4.25
2023-04-15T06:09:41.094Z,4.29
2023-04-15T06:10:41.163Z,4.32
2023-04-15T06:11:41.083Z,4.35
2023-04-15T06:12:41.090Z,4.38
2023-04-15T06:13:41.213Z,4.42
2023-04-15T06:14:44.751Z,4.45
2023-04-15T06:15:47.073Z,4.48
2023-04-15T06:17:41.231Z,4.53
2023-04-15T06:18:41.055Z,4.52
2023-04-15T06:19:41.216Z,4.55
2023-04-15T06:20:41.458Z,4.58
2023-04-15T06:21:41.519Z,4.62
2023-04-15T06:22:41.066Z,4.68
2023-04-15T06:23:41.276Z,4.74
2023-04-15T06:24:41.339Z,4.8
2023-04-15T06:25:41.367Z,4.86
2023-04-15T06:26:41.042Z,4.93
2023-04-15T06:27:41.047Z,5
2023-04-15T06:28:41.045Z,5.07
2023-04-15T06:29:41.048Z,5.12
2023-04-15T06:30:41.042Z,5.2
2023-04-15T06:31:41.093Z,5.27
2023-04-15T06:32:41.077Z,5.35
2023-04-15T06:33:41.042Z,5.42
2023-04-15T06:34:41.046Z,5.49
2023-04-15T06:35:41.582Z,5.55
2023-04-15T06:36:44.982Z,5.59
2023-04-15T06:37:47.819Z,5.63
2023-04-15T06:39:41.121Z,5.71
2023-04-15T06:40:41.041Z,5.76
2023-04-15T06:41:41.056Z,5.81
2023-04-15T06:42:41.052Z,5.86
2023-04-15T06:43:41.041Z,5.88
2023-04-15T06:44:41.045Z,5.89
2023-04-15T06:45:41.104Z,5.9
2023-04-15T06:46:41.050Z,5.94
2023-04-15T06:47:41.054Z,5.99
2023-04-15T06:48:41.042Z,6.03
2023-04-15T06:49:41.060Z,6.09
2023-04-15T06:50:41.049Z,6.14
2023-04-15T06:51:41.037Z,6.17
2023-04-15T06:52:41.049Z,6.19
2023-04-15T06:53:41.075Z,6.23
2023-04-15T06:54:41.043Z,6.24
2023-04-15T06:55:41.045Z,6.27
2023-04-15T06:56:41.403Z,6.28
2023-04-15T06:57:45.127Z,6.37
2023-04-15T06:58:47.518Z,6.47
2023-04-15T07:00:41.180Z,6.76
2023-04-15T07:01:41.047Z,6.9
2023-04-15T07:02:41.153Z,7.05
2023-04-15T07:03:41.059Z,7.15
2023-04-15T07:04:41.275Z,7.25
2023-04-15T07:05:41.185Z,7.3
2023-04-15T07:06:41.230Z,7.38
2023-04-15T07:07:41.226Z,7.45
2023-04-15T07:08:41.347Z,7.55
2023-04-15T07:09:41.047Z,7.66
2023-04-15T07:10:41.110Z,7.79
2023-04-15T07:11:41.506Z,7.98
2023-04-15T07:12:41.359Z,8.15
2023-04-15T07:13:41.385Z,8.33
2023-04-15T07:14:41.606Z,8.51
2023-04-15T07:15:41.040Z,8.66
2023-04-15T07:16:41.070Z,8.68
2023-04-15T07:17:41.545Z,8.7
2023-04-15T07:18:45.197Z,8.65
2023-04-15T07:19:48.057Z,8.72
2023-04-15T07:21:44.067Z,8.77
2023-04-15T07:22:41.038Z,8.77
2023-04-15T07:23:41.039Z,8.89
2023-04-15T07:24:41.048Z,9.03
2023-04-15T07:25:41.061Z,9.18
2023-04-15T07:26:41.076Z,9.38
2023-04-15T07:27:41.039Z,9.56
2023-04-15T07:28:41.047Z,9.71
2023-04-15T07:29:41.053Z,9.85
2023-04-15T07:30:41.053Z,9.96
2023-04-15T07:31:41.063Z,9.99
2023-04-15T07:32:41.057Z,10
2023-04-15T07:33:41.047Z,10.02
2023-04-15T07:34:41.048Z,9.96
2023-04-15T07:35:41.055Z,9.87
2023-04-15T07:36:41.038Z,9.76
2023-04-15T07:37:41.046Z,9.65
2023-04-15T07:38:41.600Z,9.58
2023-04-15T07:39:45.255Z,9.61
2023-04-15T07:40:48.129Z,9.71
2023-04-15T07:42:42.170Z,9.96
2023-04-15T07:43:41.050Z,10.05
2023-04-15T07:44:41.054Z,10.12
2023-04-15T07:45:41.067Z,9.79
2023-04-15T07:46:41.062Z,9.87
2023-04-15T07:47:41.077Z,9.87
2023-04-15T07:48:41.081Z,9.85
2023-04-15T07:49:41.056Z,9.88
2023-04-15T07:50:41.047Z,9.94
2023-04-15T07:51:41.042Z,10
2023-04-15T07:52:41.046Z,10.05
2023-04-15T07:53:41.077Z,10.08
2023-04-15T07:54:41.047Z,10.11
2023-04-15T07:55:41.052Z,10.01
2023-04-15T07:56:41.053Z,9.94
2023-04-15T07:57:41.055Z,9.86
2023-04-15T07:58:41.066Z,9.82
2023-04-15T07:59:41.706Z,9.75
2023-04-15T08:00:45.356Z,9.73
2023-04-15T08:01:48.310Z,9.75
2023-04-15T08:03:41.157Z,9.78
2023-04-15T08:04:41.294Z,9.81
2023-04-15T08:05:41.066Z,9.74
2023-04-15T08:06:41.058Z,9.64
2023-04-15T08:07:41.048Z,9.54
2023-04-15T08:08:41.058Z,9.27
2023-04-15T08:09:41.053Z,9.21
2023-04-15T08:10:41.055Z,9.09
2023-04-15T08:11:41.046Z,9.1
2023-04-15T08:12:41.062Z,8.98
2023-04-15T08:13:41.043Z,8.89
2023-04-15T08:14:41.034Z,8.87
2023-04-15T08:15:41.059Z,8.78
2023-04-15T08:16:41.055Z,8.85
2023-04-15T08:17:41.129Z,8.89
2023-04-15T08:18:41.113Z,8.96
2023-04-15T08:19:41.060Z,9.03
2023-04-15T08:20:41.783Z,9.08
2023-04-15T08:21:45.567Z,9.18
2023-04-15T08:22:48.304Z,9.21
2023-04-15T08:24:41.323Z,9.2
2023-04-15T08:25:41.047Z,9.25
2023-04-15T08:26:41.046Z,9.16
2023-04-15T08:27:41.097Z,9.24
2023-04-15T08:28:41.051Z,9.34
2023-04-15T08:29:41.054Z,9.4
2023-04-15T08:30:41.042Z,9.41
2023-04-15T08:31:41.184Z,9.46
2023-04-15T08:32:41.059Z,9.38
2023-04-15T08:33:41.034Z,9.34
2023-04-15T08:34:41.050Z,9.32
2023-04-15T08:35:41.047Z,9.3
2023-04-15T08:36:41.118Z,9.2
2023-04-15T08:37:41.105Z,9.12
2023-04-15T08:38:41.243Z,9.11
2023-04-15T08:39:41.256Z,8.99
2023-04-15T08:40:41.056Z,8.96
2023-04-15T08:41:41.905Z,8.91
2023-04-15T08:42:45.906Z,8.96
2023-04-15T08:43:48.365Z,8.93
2023-04-15T08:45:41.050Z,9
2023-04-15T08:46:41.091Z,9.1
2023-04-15T08:47:41.078Z,9
2023-04-15T08:48:41.051Z,8.87
2023-04-15T08:49:41.054Z,8.88
2023-04-15T08:50:41.047Z,8.73
2023-04-15T08:51:41.041Z,8.73
2023-04-15T08:52:41.166Z,8.68
2023-04-15T08:53:41.051Z,8.63
2023-04-15T08:54:41.331Z,8.65
2023-04-15T08:55:41.109Z,8.58
2023-04-15T08:56:41.083Z,8.51
2023-04-15T08:57:41.061Z,8.57
2023-04-15T08:58:41.103Z,8.6
2023-04-15T08:59:41.042Z,8.63
2023-04-15T09:00:41.040Z,8.72
2023-04-15T09:01:41.181Z,8.79
2023-04-15T09:02:42.060Z,8.77
2023-04-15T09:03:45.701Z,8.87
2023-04-15T09:04:48.465Z,8.89
2023-04-15T09:06:41.046Z,8.84
2023-04-15T09:07:41.047Z,8.76
2023-04-15T09:08:41.046Z,8.72
2023-04-15T09:09:41.101Z,8.61
2023-04-15T09:10:41.091Z,8.58
2023-04-15T09:11:41.239Z,8.62
2023-04-15T09:12:41.051Z,8.64
2023-04-15T09:13:41.223Z,8.57
2023-04-15T09:14:41.056Z,8.57
2023-04-15T09:15:41.074Z,8.5
2023-04-15T09:16:41.273Z,8.49
2023-04-15T09:17:41.062Z,8.42
2023-04-15T09:18:41.070Z,8.42
2023-04-15T09:19:41.053Z,8.41
2023-04-15T09:20:41.064Z,8.35
2023-04-15T09:21:41.048Z,8.34
2023-04-15T09:22:41.052Z,8.31
2023-04-15T09:23:42.143Z,8.16
2023-04-15T09:24:45.633Z,8.19
2023-04-15T09:25:47.974Z,8.23
2023-04-15T09:27:41.061Z,8.24
2023-04-15T09:28:41.042Z,8.23
2023-04-15T09:29:41.048Z,8.24
2023-04-15T09:30:41.071Z,8.21
2023-04-15T09:31:41.076Z,8.19
2023-04-15T09:32:41.052Z,8.23
2023-04-15T09:33:41.046Z,8.23
2023-04-15T09:34:41.055Z,8.23
2023-04-15T09:35:41.471Z,8.18
2023-04-15T09:36:41.081Z,8.21
2023-04-15T09:37:41.045Z,8.2
2023-04-15T09:38:41.062Z,8.2
2023-04-15T09:39:41.046Z,8.24
2023-04-15T09:40:41.046Z,8.23
2023-04-15T09:41:41.062Z,8.21
2023-04-15T09:42:41.047Z,8.23
2023-04-15T09:43:41.046Z,8.21
2023-04-15T09:44:41.037Z,8.16
2023-04-15T09:45:42.297Z,8.18
2023-04-15T09:46:46.268Z,8.1
2023-04-15T09:47:47.642Z,8.02
2023-04-15T09:48:41.038Z,8.02
2023-04-15T09:49:41.069Z,8.09
2023-04-15T09:50:41.048Z,8.08
2023-04-15T09:51:42.179Z,8.12
2023-04-15T09:52:41.046Z,8.11
2023-04-15T09:53:41.052Z,8.11
2023-04-15T09:54:41.041Z,8.15
2023-04-15T09:55:41.053Z,8.17
2023-04-15T09:56:41.058Z,8.1
2023-04-15T09:57:41.047Z,8.1
2023-04-15T09:58:41.054Z,8.1
2023-04-15T09:59:41.057Z,8.1
2023-04-15T10:00:41.044Z,8.03
2023-04-15T10:01:41.075Z,7.94
2023-04-15T10:02:41.094Z,7.88
2023-04-15T10:03:41.121Z,7.85
2023-04-15T10:04:41.052Z,7.76
2023-04-15T10:05:41.052Z,7.79
2023-04-15T10:06:42.425Z,7.8
2023-04-15T10:07:45.869Z,7.76
2023-04-15T10:08:47.759Z,7.76
2023-04-15T10:09:41.137Z,7.75
2023-04-15T10:10:41.045Z,7.79
2023-04-15T10:11:41.343Z,7.78
2023-04-15T10:12:41.054Z,7.77
2023-04-15T10:13:41.046Z,7.78
2023-04-15T10:14:41.043Z,7.79
2023-04-15T10:15:41.075Z,7.81
2023-04-15T10:16:41.174Z,7.84
2023-04-15T10:17:41.091Z,7.83
2023-04-15T10:18:41.066Z,7.75
2023-04-15T10:19:41.051Z,7.78
2023-04-15T10:20:41.041Z,7.84
2023-04-15T10:21:41.061Z,7.89
2023-04-15T10:22:41.054Z,7.87
2023-04-15T10:23:41.051Z,7.88
2023-04-15T10:24:41.056Z,7.89
2023-04-15T10:25:41.062Z,7.92
2023-04-15T10:26:41.046Z,7.92
2023-04-15T10:27:42.522Z,7.98
2023-04-15T10:28:46.014Z,7.98
2023-04-15T10:29:47.400Z,7.96
2023-04-15T10:30:41.078Z,8.01
2023-04-15T10:31:41.106Z,8.03
2023-04-15T10:32:41.112Z,7.98
2023-04-15T10:33:41.051Z,8.02
2023-04-15T10:34:41.066Z,7.97
2023-04-15T10:35:41.058Z,8
2023-04-15T10:36:41.057Z,7.97
2023-04-15T10:37:41.051Z,7.95
2023-04-15T10:38:41.040Z,7.98
2023-04-15T10:39:41.047Z,7.93
2023-04-15T10:40:41.061Z,7.95
2023-04-15T10:41:41.049Z,7.94
2023-04-15T10:42:41.049Z,7.89
2023-04-15T10:43:41.047Z,7.94
2023-04-15T10:44:41.058Z,7.94
2023-04-15T10:45:41.047Z,7.92
2023-04-15T10:46:41.209Z,7.92
2023-04-15T10:47:41.065Z,7.95
2023-04-15T10:48:42.586Z,7.98
2023-04-15T10:49:46.114Z,7.94
2023-04-15T10:50:47.458Z,8.01
2023-04-15T10:51:41.055Z,8
2023-04-15T10:52:41.046Z,8.04
2023-04-15T10:53:41.046Z,8.01
2023-04-15T10:54:41.050Z,8.03
2023-04-15T10:55:41.064Z,8.03
2023-04-15T10:56:41.045Z,8.12
2023-04-15T10:57:41.054Z,8.12
2023-04-15T10:58:41.056Z,8.14
2023-04-15T10:59:41.258Z,8.14
2023-04-15T11:00:41.051Z,8.15
2023-04-15T11:01:41.074Z,8.13
2023-04-15T11:02:41.391Z,8.12
2023-04-15T11:03:41.101Z,8.12
2023-04-15T11:04:44.047Z,8.06
2023-04-15T11:05:41.149Z,8.1
2023-04-15T11:06:41.052Z,8.08
2023-04-15T11:07:41.055Z,8.06
2023-04-15T11:08:41.043Z,8.08
2023-04-15T11:09:42.713Z,8.04
2023-04-15T11:10:45.615Z,7.99
2023-04-15T11:11:46.908Z,7.98
2023-04-15T11:12:41.062Z,8.05
2023-04-15T11:13:41.038Z,8.06
2023-04-15T11:14:41.034Z,8.07
2023-04-15T11:15:41.063Z,8.1
2023-04-15T11:16:41.071Z,8.11
2023-04-15T11:17:41.052Z,8.1
2023-04-15T11:18:41.051Z,8.1
2023-04-15T11:19:41.045Z,8.11
2023-04-15T11:20:41.058Z,8.09
2023-04-15T11:21:41.067Z,8.14
2023-04-15T11:22:41.043Z,8.15
2023-04-15T11:23:41.063Z,8.14
2023-04-15T11:24:41.043Z,8.12
2023-04-15T11:25:41.054Z,8.13
2023-04-15T11:26:41.059Z,8.1
2023-04-15T11:27:41.043Z,8.11
2023-04-15T11:28:41.138Z,8.13
2023-04-15T11:29:41.036Z,8.11
2023-04-15T11:30:43.068Z,8.08
2023-04-15T11:31:46.203Z,8.13
2023-04-15T11:32:47.583Z,8.16
2023-04-15T11:33:41.122Z,8.13
2023-04-15T11:34:41.149Z,8.17
2023-04-15T11:35:41.043Z,8.14
2023-04-15T11:36:41.058Z,8.15
2023-04-15T11:37:41.075Z,8.13
2023-04-15T11:38:41.043Z,8.16
2023-04-15T11:39:41.039Z,8.13
2023-04-15T11:40:41.052Z,8.16
2023-04-15T11:41:41.076Z,8.2
2023-04-15T11:42:49.357Z,8.23
2023-04-15T11:43:41.048Z,8.23
2023-04-15T11:44:41.065Z,8.26
2023-04-15T11:45:41.059Z,8.31
2023-04-15T11:46:41.054Z,8.34
2023-04-15T11:47:41.065Z,8.35
2023-04-15T11:48:41.043Z,8.35
2023-04-15T11:49:41.045Z,8.39
2023-04-15T11:50:41.113Z,8.41
2023-04-15T11:51:42.824Z,8.43
2023-04-15T11:52:45.811Z,8.39
2023-04-15T11:53:47.706Z,8.41
2023-04-15T11:54:41.055Z,8.43
2023-04-15T11:55:41.232Z,8.41
2023-04-15T11:56:41.048Z,8.45
2023-04-15T11:57:41.038Z,8.48
2023-04-15T11:58:41.049Z,8.46
2023-04-15T11:59:45.163Z,8.45
2023-04-15T12:00:41.067Z,8.42
2023-04-15T12:01:41.080Z,8.4
2023-04-15T12:02:41.210Z,8.43
2023-04-15T12:03:41.364Z,8.46
2023-04-15T12:04:41.197Z,8.49
2023-04-15T12:05:41.050Z,8.5
2023-04-15T12:06:41.047Z,8.53
2023-04-15T12:07:41.063Z,8.54
2023-04-15T12:08:41.058Z,8.54
2023-04-15T12:09:41.045Z,8.53
2023-04-15T12:10:41.056Z,8.5
2023-04-15T12:11:41.050Z,8.52
2023-04-15T12:12:42.978Z,8.5
2023-04-15T12:13:46.499Z,8.51
2023-04-15T12:14:47.767Z,8.54
2023-04-15T12:15:41.061Z,8.55
2023-04-15T12:16:48.120Z,8.57
2023-04-15T12:17:51.156Z,8.62
2023-04-15T12:18:41.048Z,8.61
2023-04-15T12:19:41.411Z,8.61
2023-04-15T12:20:41.047Z,8.64
2023-04-15T12:21:41.056Z,8.67
2023-04-15T12:22:41.068Z,8.69
2023-04-15T12:23:41.043Z,8.63
2023-04-15T12:24:41.055Z,8.65
2023-04-15T12:25:41.046Z,8.65
2023-04-15T12:26:41.048Z,8.6
2023-04-15T12:27:41.406Z,8.59
2023-04-15T12:28:41.052Z,8.63
2023-04-15T12:29:41.062Z,8.63
2023-04-15T12:30:41.045Z,8.65
2023-04-15T12:31:41.112Z,8.67
2023-04-15T12:32:43.390Z,8.67
2023-04-15T12:33:43.136Z,8.67
2023-04-15T12:34:45.977Z,8.7
2023-04-15T12:35:47.889Z,8.71
2023-04-15T12:36:41.254Z,8.72
2023-04-15T12:37:41.048Z,8.75
2023-04-15T12:38:41.043Z,8.74
2023-04-15T12:39:41.046Z,8.77
2023-04-15T12:40:41.079Z,8.8
2023-04-15T12:41:41.051Z,8.75
2023-04-15T12:42:41.041Z,8.75
2023-04-15T12:43:41.073Z,8.75
2023-04-15T12:44:41.089Z,8.75
2023-04-15T12:45:41.057Z,8.76
2023-04-15T12:46:41.059Z,8.75
2023-04-15T12:47:41.229Z,8.77
2023-04-15T12:48:41.042Z,8.78
2023-04-15T12:49:41.304Z,8.76
2023-04-15T12:50:41.195Z,8.8
2023-04-15T12:51:41.037Z,8.8
2023-04-15T12:52:41.048Z,8.83
2023-04-15T12:53:41.058Z,8.84
2023-04-15T12:54:43.242Z,8.83
2023-04-15T12:55:46.103Z,8.84
2023-04-15T12:56:48.064Z,8.85
2023-04-15T12:57:41.072Z,8.82
2023-04-15T12:58:41.037Z,8.84
2023-04-15T12:59:41.048Z,8.87
2023-04-15T13:00:41.036Z,8.87
2023-04-15T13:01:41.054Z,8.86
2023-04-15T13:02:41.300Z,8.84
2023-04-15T13:03:41.174Z,8.84
2023-04-15T13:04:41.073Z,8.82
2023-04-15T13:05:41.053Z,8.88
2023-04-15T13:06:41.046Z,8.9
2023-04-15T13:07:41.053Z,8.92
2023-04-15T13:08:48.069Z,8.93
2023-04-15T13:09:41.048Z,8.92
2023-04-15T13:10:41.054Z,8.91
2023-04-15T13:11:41.049Z,8.91
2023-04-15T13:12:41.053Z,8.92
2023-04-15T13:13:41.068Z,8.9
2023-04-15T13:14:41.096Z,8.92
2023-04-15T13:15:43.359Z,8.9
2023-04-15T13:16:46.139Z,8.89
2023-04-15T13:17:48.093Z,8.86
2023-04-15T13:18:41.051Z,8.81
2023-04-15T13:19:41.159Z,8.8
2023-04-15T13:20:41.057Z,8.78
2023-04-15T13:21:41.053Z,8.78
2023-04-15T13:22:41.160Z,8.77
2023-04-15T13:23:41.087Z,8.78
2023-04-15T13:24:41.343Z,8.78
2023-04-15T13:25:41.065Z,8.78
2023-04-15T13:26:41.335Z,8.76
2023-04-15T13:27:41.259Z,8.75
2023-04-15T13:28:41.179Z,8.72
2023-04-15T13:29:41.186Z,8.67
2023-04-15T13:30:41.052Z,8.64
2023-04-15T13:31:41.095Z,8.66
2023-04-15T13:32:41.412Z,8.66
2023-04-15T13:33:41.157Z,8.66
2023-04-15T13:34:41.144Z,8.64
2023-04-15T13:35:41.047Z,8.64
2023-04-15T13:36:43.419Z,8.63
2023-04-15T13:37:46.274Z,8.62
2023-04-15T13:39:41.050Z,8.54
2023-04-15T13:40:41.067Z,8.53
2023-04-15T13:41:41.047Z,8.54
2023-04-15T13:42:41.045Z,8.56